sensor_id;sensor_type;location;lat;lon;timestamp;P1;durP1;ratioP1;P2;durP2;ratioP2
24325;SDS011;12448;45.532;5.290;2022-10-16T00:02:40;6.05;;;3.20;;
24325;SDS011;12448;45.532;5.290;2022-10-16T00:05:24;9.20;;;3.53;;
24325;SDS011;12448;45.532;5.290;2022-10-16T00:11:06;4.28;;;3.13;;
24325;SDS011;12448;45.532;5.290;2022-10-16T00:13:40;7.97;;;3.33;;
24325;SDS011;12448;45.532;5.290;2022-10-16T00:16:38;11.20;;;3.65;;
24325;SDS011;12448;45.532;5.290;2022-10-16T00:19:24;8.13;;;3.33;;
24325;SDS011;12448;45.532;5.290;2022-10-16T00:22:17;10.07;;;3.45;;
24325;SDS011;12448;45.532;5.290;2022-10-16T00:28:18;9.60;;;3.55;;
24325;SDS011;12448;45.532;5.290;2022-10-16T00:34:39;5.57;;;3.35;;
24325;SDS011;12448;45.532;5.290;2022-10-16T00:41:13;9.20;;;3.75;;
24325;SDS011;12448;45.532;5.290;2022-10-16T00:47:09;5.38;;;3.75;;
24325;SDS011;12448;45.532;5.290;2022-10-16T00:53:00;7.88;;;3.80;;
24325;SDS011;12448;45.532;5.290;2022-10-16T00:55:30;6.88;;;3.88;;
24325;SDS011;12448;45.532;5.290;2022-10-16T00:58:11;8.98;;;3.90;;
24325;SDS011;12448;45.532;5.290;2022-10-16T01:00:48;7.45;;;3.95;;
24325;SDS011;12448;45.532;5.290;2022-10-16T01:03:49;7.43;;;4.25;;
24325;SDS011;12448;45.532;5.290;2022-10-16T01:06:25;6.53;;;4.70;;
24325;SDS011;12448;45.532;5.290;2022-10-16T01:18:08;8.05;;;4.13;;
24325;SDS011;12448;45.532;5.290;2022-10-16T01:20:42;8.70;;;4.07;;
24325;SDS011;12448;45.532;5.290;2022-10-16T01:29:22;8.43;;;4.55;;
24325;SDS011;12448;45.532;5.290;2022-10-16T01:32:21;10.52;;;5.05;;
24325;SDS011;12448;45.532;5.290;2022-10-16T01:35:35;6.93;;;4.18;;
24325;SDS011;12448;45.532;5.290;2022-10-16T01:38:21;6.00;;;4.60;;
24325;SDS011;12448;45.532;5.290;2022-10-16T01:40:58;7.28;;;4.40;;
24325;SDS011;12448;45.532;5.290;2022-10-16T01:43:46;11.63;;;4.60;;
24325;SDS011;12448;45.532;5.290;2022-10-16T01:46:34;6.85;;;4.38;;
24325;SDS011;12448;45.532;5.290;2022-10-16T01:51:32;8.38;;;4.85;;
24325;SDS011;12448;45.532;5.290;2022-10-16T01:54:00;8.77;;;4.50;;
24325;SDS011;12448;45.532;5.290;2022-10-16T01:56:27;7.70;;;4.28;;
24325;SDS011;12448;45.532;5.290;2022-10-16T01:58:55;9.70;;;4.80;;
24325;SDS011;12448;45.532;5.290;2022-10-16T02:01:30;9.23;;;5.07;;
24325;SDS011;12448;45.532;5.290;2022-10-16T02:03:59;7.35;;;4.63;;
24325;SDS011;12448;45.532;5.290;2022-10-16T02:06:33;8.80;;;4.45;;
24325;SDS011;12448;45.532;5.290;2022-10-16T02:08:59;10.32;;;5.28;;
24325;SDS011;12448;45.532;5.290;2022-10-16T02:11:25;10.50;;;5.07;;
24325;SDS011;12448;45.532;5.290;2022-10-16T02:13:53;8.68;;;4.60;;
24325;SDS011;12448;45.532;5.290;2022-10-16T02:16:39;10.98;;;4.93;;
24325;SDS011;12448;45.532;5.290;2022-10-16T02:19:11;10.85;;;4.85;;
24325;SDS011;12448;45.532;5.290;2022-10-16T02:30:25;9.55;;;5.80;;
24325;SDS011;12448;45.532;5.290;2022-10-16T02:33:02;9.73;;;5.40;;
24325;SDS011;12448;45.532;5.290;2022-10-16T02:35:35;9.60;;;5.57;;
24325;SDS011;12448;45.532;5.290;2022-10-16T02:38:02;12.00;;;5.85;;
24325;SDS011;12448;45.532;5.290;2022-10-16T02:40:32;13.40;;;6.18;;
24325;SDS011;12448;45.532;5.290;2022-10-16T02:42:58;9.60;;;5.53;;
24325;SDS011;12448;45.532;5.290;2022-10-16T02:45:27;13.65;;;6.30;;
24325;SDS011;12448;45.532;5.290;2022-10-16T02:47:54;11.27;;;5.63;;
24325;SDS011;12448;45.532;5.290;2022-10-16T02:50:25;13.13;;;6.55;;
24325;SDS011;12448;45.532;5.290;2022-10-16T02:52:51;11.25;;;6.30;;
24325;SDS011;12448;45.532;5.290;2022-10-16T02:55:20;15.73;;;6.72;;
24325;SDS011;12448;45.532;5.290;2022-10-16T02:57:53;9.05;;;6.15;;
24325;SDS011;12448;45.532;5.290;2022-10-16T03:00:22;8.52;;;5.72;;
24325;SDS011;12448;45.532;5.290;2022-10-16T03:03:36;11.38;;;6.97;;
24325;SDS011;12448;45.532;5.290;2022-10-16T03:05:54;14.35;;;6.28;;
24325;SDS011;12448;45.532;5.290;2022-10-16T03:08:29;11.68;;;6.13;;
24325;SDS011;12448;45.532;5.290;2022-10-16T03:11:09;11.35;;;6.18;;
24325;SDS011;12448;45.532;5.290;2022-10-16T03:13:41;14.98;;;6.28;;
24325;SDS011;12448;45.532;5.290;2022-10-16T03:16:10;12.23;;;6.43;;
24325;SDS011;12448;45.532;5.290;2022-10-16T03:18:42;15.70;;;7.15;;
24325;SDS011;12448;45.532;5.290;2022-10-16T03:21:08;13.82;;;6.78;;
24325;SDS011;12448;45.532;5.290;2022-10-16T03:23:33;14.27;;;6.88;;
24325;SDS011;12448;45.532;5.290;2022-10-16T03:25:59;9.75;;;6.65;;
24325;SDS011;12448;45.532;5.290;2022-10-16T03:28:25;11.27;;;6.80;;
24325;SDS011;12448;45.532;5.290;2022-10-16T03:31:02;13.82;;;6.55;;
24325;SDS011;12448;45.532;5.290;2022-10-16T03:33:28;14.75;;;6.88;;
24325;SDS011;12448;45.532;5.290;2022-10-16T03:35:54;10.90;;;6.60;;
24325;SDS011;12448;45.532;5.290;2022-10-16T03:38:42;13.80;;;6.80;;
24325;SDS011;12448;45.532;5.290;2022-10-16T03:41:14;12.23;;;7.22;;
24325;SDS011;12448;45.532;5.290;2022-10-16T03:44:07;11.13;;;6.72;;
24325;SDS011;12448;45.532;5.290;2022-10-16T03:46:39;12.23;;;6.75;;
24325;SDS011;12448;45.532;5.290;2022-10-16T03:49:13;12.35;;;7.43;;
24325;SDS011;12448;45.532;5.290;2022-10-16T03:51:45;13.95;;;6.15;;
24325;SDS011;12448;45.532;5.290;2022-10-16T03:54:11;11.60;;;6.35;;
24325;SDS011;12448;45.532;5.290;2022-10-16T03:56:37;13.00;;;6.78;;
24325;SDS011;12448;45.532;5.290;2022-10-16T03:59:03;11.50;;;6.82;;
24325;SDS011;12448;45.532;5.290;2022-10-16T04:01:28;11.75;;;6.00;;
24325;SDS011;12448;45.532;5.290;2022-10-16T04:03:54;10.75;;;6.60;;
24325;SDS011;12448;45.532;5.290;2022-10-16T04:06:20;9.82;;;6.03;;
24325;SDS011;12448;45.532;5.290;2022-10-16T04:08:45;12.57;;;6.22;;
24325;SDS011;12448;45.532;5.290;2022-10-16T04:11:11;9.77;;;6.30;;
24325;SDS011;12448;45.532;5.290;2022-10-16T04:13:37;11.73;;;7.03;;
24325;SDS011;12448;45.532;5.290;2022-10-16T04:16:03;13.52;;;6.50;;
24325;SDS011;12448;45.532;5.290;2022-10-16T04:21:16;10.95;;;6.20;;
24325;SDS011;12448;45.532;5.290;2022-10-16T04:23:51;14.27;;;6.55;;
24325;SDS011;12448;45.532;5.290;2022-10-16T04:26:31;16.73;;;6.32;;
24325;SDS011;12448;45.532;5.290;2022-10-16T04:29:08;10.52;;;5.90;;
24325;SDS011;12448;45.532;5.290;2022-10-16T04:31:46;11.88;;;7.03;;
24325;SDS011;12448;45.532;5.290;2022-10-16T04:34:15;12.05;;;5.93;;
24325;SDS011;12448;45.532;5.290;2022-10-16T04:36:43;11.02;;;6.15;;
24325;SDS011;12448;45.532;5.290;2022-10-16T04:39:32;16.00;;;6.43;;
24325;SDS011;12448;45.532;5.290;2022-10-16T04:41:58;13.77;;;6.47;;
24325;SDS011;12448;45.532;5.290;2022-10-16T04:44:24;13.80;;;6.65;;
24325;SDS011;12448;45.532;5.290;2022-10-16T04:46:53;10.23;;;6.13;;
24325;SDS011;12448;45.532;5.290;2022-10-16T04:49:24;8.98;;;6.65;;
24325;SDS011;12448;45.532;5.290;2022-10-16T04:51:52;12.30;;;6.68;;
24325;SDS011;12448;45.532;5.290;2022-10-16T04:54:18;15.57;;;7.22;;
24325;SDS011;12448;45.532;5.290;2022-10-16T04:56:44;11.30;;;6.72;;
24325;SDS011;12448;45.532;5.290;2022-10-16T04:59:14;15.93;;;6.50;;
24325;SDS011;12448;45.532;5.290;2022-10-16T05:01:40;12.52;;;6.78;;
24325;SDS011;12448;45.532;5.290;2022-10-16T05:04:06;10.23;;;6.18;;
24325;SDS011;12448;45.532;5.290;2022-10-16T05:06:31;11.63;;;6.55;;
24325;SDS011;12448;45.532;5.290;2022-10-16T05:08:57;12.38;;;6.68;;
24325;SDS011;12448;45.532;5.290;2022-10-16T05:11:23;11.90;;;6.22;;
24325;SDS011;12448;45.532;5.290;2022-10-16T05:13:48;12.52;;;6.28;;
24325;SDS011;12448;45.532;5.290;2022-10-16T05:16:14;14.73;;;6.47;;
24325;SDS011;12448;45.532;5.290;2022-10-16T05:18:40;11.95;;;6.60;;
24325;SDS011;12448;45.532;5.290;2022-10-16T05:21:05;10.02;;;6.45;;
24325;SDS011;12448;45.532;5.290;2022-10-16T05:23:31;15.55;;;6.15;;
24325;SDS011;12448;45.532;5.290;2022-10-16T05:25:57;10.07;;;6.45;;
24325;SDS011;12448;45.532;5.290;2022-10-16T05:28:24;11.32;;;6.40;;
24325;SDS011;12448;45.532;5.290;2022-10-16T05:30:51;10.32;;;6.07;;
24325;SDS011;12448;45.532;5.290;2022-10-16T05:33:16;14.65;;;6.40;;
24325;SDS011;12448;45.532;5.290;2022-10-16T05:35:44;11.23;;;7.28;;
24325;SDS011;12448;45.532;5.290;2022-10-16T05:38:10;9.85;;;6.38;;
24325;SDS011;12448;45.532;5.290;2022-10-16T05:40:35;14.27;;;7.35;;
24325;SDS011;12448;45.532;5.290;2022-10-16T05:43:01;16.88;;;7.25;;
24325;SDS011;12448;45.532;5.290;2022-10-16T05:45:27;14.38;;;8.02;;
24325;SDS011;12448;45.532;5.290;2022-10-16T05:47:52;11.30;;;7.35;;
24325;SDS011;12448;45.532;5.290;2022-10-16T05:50:18;12.75;;;7.47;;
24325;SDS011;12448;45.532;5.290;2022-10-16T05:52:44;9.73;;;6.80;;
24325;SDS011;12448;45.532;5.290;2022-10-16T05:55:12;12.65;;;7.40;;
24325;SDS011;12448;45.532;5.290;2022-10-16T05:57:38;13.27;;;7.43;;
24325;SDS011;12448;45.532;5.290;2022-10-16T06:00:04;15.10;;;7.63;;
24325;SDS011;12448;45.532;5.290;2022-10-16T06:02:30;13.10;;;7.10;;
24325;SDS011;12448;45.532;5.290;2022-10-16T06:04:56;12.85;;;7.65;;
24325;SDS011;12448;45.532;5.290;2022-10-16T06:07:22;15.27;;;7.15;;
24325;SDS011;12448;45.532;5.290;2022-10-16T06:09:48;14.00;;;7.40;;
24325;SDS011;12448;45.532;5.290;2022-10-16T06:12:15;13.55;;;6.75;;
24325;SDS011;12448;45.532;5.290;2022-10-16T06:14:41;14.73;;;7.20;;
24325;SDS011;12448;45.532;5.290;2022-10-16T06:17:06;13.75;;;6.93;;
24325;SDS011;12448;45.532;5.290;2022-10-16T06:19:32;12.43;;;7.35;;
24325;SDS011;12448;45.532;5.290;2022-10-16T06:21:58;11.40;;;6.50;;
24325;SDS011;12448;45.532;5.290;2022-10-16T06:24:24;11.70;;;7.18;;
24325;SDS011;12448;45.532;5.290;2022-10-16T06:26:50;10.30;;;6.30;;
24325;SDS011;12448;45.532;5.290;2022-10-16T06:29:15;10.85;;;6.00;;
24325;SDS011;12448;45.532;5.290;2022-10-16T06:31:41;10.55;;;5.95;;
24325;SDS011;12448;45.532;5.290;2022-10-16T06:34:10;12.20;;;5.85;;
24325;SDS011;12448;45.532;5.290;2022-10-16T06:36:36;10.48;;;6.05;;
24325;SDS011;12448;45.532;5.290;2022-10-16T06:39:03;11.57;;;6.13;;
24325;SDS011;12448;45.532;5.290;2022-10-16T06:41:30;10.68;;;5.53;;
24325;SDS011;12448;45.532;5.290;2022-10-16T06:43:56;9.80;;;5.65;;
24325;SDS011;12448;45.532;5.290;2022-10-16T06:46:22;11.45;;;5.50;;
24325;SDS011;12448;45.532;5.290;2022-10-16T06:48:52;10.15;;;5.10;;
24325;SDS011;12448;45.532;5.290;2022-10-16T06:51:19;5.53;;;4.65;;
24325;SDS011;12448;45.532;5.290;2022-10-16T06:53:50;6.95;;;4.70;;
24325;SDS011;12448;45.532;5.290;2022-10-16T06:56:20;7.00;;;4.57;;
24325;SDS011;12448;45.532;5.290;2022-10-16T06:58:47;11.27;;;4.70;;
24325;SDS011;12448;45.532;5.290;2022-10-16T07:01:14;9.90;;;5.07;;
24325;SDS011;12448;45.532;5.290;2022-10-16T07:03:41;11.82;;;5.88;;
24325;SDS011;12448;45.532;5.290;2022-10-16T07:06:09;8.48;;;4.55;;
24325;SDS011;12448;45.532;5.290;2022-10-16T07:08:40;6.60;;;3.97;;
24325;SDS011;12448;45.532;5.290;2022-10-16T07:11:16;6.05;;;4.07;;
24325;SDS011;12448;45.532;5.290;2022-10-16T07:13:46;7.55;;;3.60;;
24325;SDS011;12448;45.532;5.290;2022-10-16T07:18:40;5.90;;;3.92;;
24325;SDS011;12448;45.532;5.290;2022-10-16T07:21:09;4.75;;;3.30;;
24325;SDS011;12448;45.532;5.290;2022-10-16T07:23:37;9.52;;;3.60;;
24325;SDS011;12448;45.532;5.290;2022-10-16T07:26:03;9.82;;;3.67;;
24325;SDS011;12448;45.532;5.290;2022-10-16T07:28:29;5.03;;;3.50;;
24325;SDS011;12448;45.532;5.290;2022-10-16T07:30:59;5.05;;;3.10;;
24325;SDS011;12448;45.532;5.290;2022-10-16T07:33:29;7.10;;;3.15;;
24325;SDS011;12448;45.532;5.290;2022-10-16T07:35:56;8.57;;;3.53;;
24325;SDS011;12448;45.532;5.290;2022-10-16T07:38:22;6.38;;;3.10;;
24325;SDS011;12448;45.532;5.290;2022-10-16T07:40:55;6.00;;;3.33;;
24325;SDS011;12448;45.532;5.290;2022-10-16T07:43:22;5.95;;;3.45;;
24325;SDS011;12448;45.532;5.290;2022-10-16T07:45:48;7.97;;;3.45;;
24325;SDS011;12448;45.532;5.290;2022-10-16T07:48:15;6.53;;;3.53;;
24325;SDS011;12448;45.532;5.290;2022-10-16T07:50:42;11.85;;;3.63;;
24325;SDS011;12448;45.532;5.290;2022-10-16T07:53:09;5.68;;;3.10;;
24325;SDS011;12448;45.532;5.290;2022-10-16T07:55:35;4.88;;;3.28;;
24325;SDS011;12448;45.532;5.290;2022-10-16T07:58:01;9.82;;;3.45;;
24325;SDS011;12448;45.532;5.290;2022-10-16T08:00:26;8.25;;;3.25;;
24325;SDS011;12448;45.532;5.290;2022-10-16T08:02:52;6.03;;;3.08;;
24325;SDS011;12448;45.532;5.290;2022-10-16T08:05:18;11.23;;;3.78;;
24325;SDS011;12448;45.532;5.290;2022-10-16T08:07:48;9.95;;;3.10;;
24325;SDS011;12448;45.532;5.290;2022-10-16T08:10:17;9.43;;;3.30;;
24325;SDS011;12448;45.532;5.290;2022-10-16T08:12:44;6.90;;;3.42;;
24325;SDS011;12448;45.532;5.290;2022-10-16T08:15:10;5.45;;;3.03;;
24325;SDS011;12448;45.532;5.290;2022-10-16T08:17:36;4.88;;;2.90;;
24325;SDS011;12448;45.532;5.290;2022-10-16T08:20:01;5.93;;;2.55;;
24325;SDS011;12448;45.532;5.290;2022-10-16T08:22:28;6.20;;;3.05;;
24325;SDS011;12448;45.532;5.290;2022-10-16T08:24:53;8.10;;;3.00;;
24325;SDS011;12448;45.532;5.290;2022-10-16T08:27:19;10.02;;;3.30;;
24325;SDS011;12448;45.532;5.290;2022-10-16T08:29:44;4.90;;;2.78;;
24325;SDS011;12448;45.532;5.290;2022-10-16T08:32:10;9.60;;;2.88;;
24325;SDS011;12448;45.532;5.290;2022-10-16T08:34:36;6.30;;;2.90;;
24325;SDS011;12448;45.532;5.290;2022-10-16T08:37:01;7.43;;;2.80;;
24325;SDS011;12448;45.532;5.290;2022-10-16T08:39:27;5.72;;;2.85;;
24325;SDS011;12448;45.532;5.290;2022-10-16T08:50:25;7.40;;;3.13;;
24325;SDS011;12448;45.532;5.290;2022-10-16T08:52:53;8.05;;;3.00;;
24325;SDS011;12448;45.532;5.290;2022-10-16T08:58:28;6.50;;;3.03;;
24325;SDS011;12448;45.532;5.290;2022-10-16T09:01:04;6.80;;;2.53;;
24325;SDS011;12448;45.532;5.290;2022-10-16T09:09:04;6.22;;;2.95;;
24325;SDS011;12448;45.532;5.290;2022-10-16T09:11:40;3.72;;;2.40;;
24325;SDS011;12448;45.532;5.290;2022-10-16T09:17:22;8.23;;;2.42;;
24325;SDS011;12448;45.532;5.290;2022-10-16T09:23:23;4.47;;;2.65;;
24325;SDS011;12448;45.532;5.290;2022-10-16T09:25:55;5.88;;;2.97;;
24325;SDS011;12448;45.532;5.290;2022-10-16T09:28:23;4.88;;;2.72;;
24325;SDS011;12448;45.532;5.290;2022-10-16T09:30:52;3.53;;;2.30;;
24325;SDS011;12448;45.532;5.290;2022-10-16T09:39:54;6.63;;;2.60;;
24325;SDS011;12448;45.532;5.290;2022-10-16T09:42:27;3.17;;;2.28;;
24325;SDS011;12448;45.532;5.290;2022-10-16T09:45:31;6.03;;;2.30;;
24325;SDS011;12448;45.532;5.290;2022-10-16T09:51:41;5.20;;;2.50;;
24325;SDS011;12448;45.532;5.290;2022-10-16T09:55:25;9.90;;;2.38;;
24325;SDS011;12448;45.532;5.290;2022-10-16T09:57:53;6.40;;;2.20;;
24325;SDS011;12448;45.532;5.290;2022-10-16T10:00:20;5.47;;;2.50;;
24325;SDS011;12448;45.532;5.290;2022-10-16T10:02:47;5.00;;;2.40;;
24325;SDS011;12448;45.532;5.290;2022-10-16T10:07:52;7.47;;;2.17;;
24325;SDS011;12448;45.532;5.290;2022-10-16T10:10:27;4.70;;;2.28;;
24325;SDS011;12448;45.532;5.290;2022-10-16T10:12:55;3.05;;;2.08;;
24325;SDS011;12448;45.532;5.290;2022-10-16T10:15:21;3.90;;;2.20;;
24325;SDS011;12448;45.532;5.290;2022-10-16T10:17:50;5.07;;;2.40;;
24325;SDS011;12448;45.532;5.290;2022-10-16T10:20:30;5.43;;;2.50;;
24325;SDS011;12448;45.532;5.290;2022-10-16T10:23:00;7.55;;;2.20;;
24325;SDS011;12448;45.532;5.290;2022-10-16T10:36:22;5.03;;;2.45;;
24325;SDS011;12448;45.532;5.290;2022-10-16T10:58:52;5.47;;;2.13;;
24325;SDS011;12448;45.532;5.290;2022-10-16T11:01:49;5.57;;;2.28;;
24325;SDS011;12448;45.532;5.290;2022-10-16T11:07:00;8.10;;;2.40;;
24325;SDS011;12448;45.532;5.290;2022-10-16T11:10:08;4.45;;;2.17;;
24325;SDS011;12448;45.532;5.290;2022-10-16T11:12:41;5.05;;;2.35;;
24325;SDS011;12448;45.532;5.290;2022-10-16T11:15:27;5.30;;;2.20;;
24325;SDS011;12448;45.532;5.290;2022-10-16T11:18:12;6.15;;;2.10;;
24325;SDS011;12448;45.532;5.290;2022-10-16T11:21:05;10.20;;;2.40;;
24325;SDS011;12448;45.532;5.290;2022-10-16T11:27:25;4.38;;;2.15;;
24325;SDS011;12448;45.532;5.290;2022-10-16T11:30:19;5.45;;;2.45;;
24325;SDS011;12448;45.532;5.290;2022-10-16T11:36:23;6.57;;;1.80;;
24325;SDS011;12448;45.532;5.290;2022-10-16T11:47:45;3.92;;;2.45;;
24325;SDS011;12448;45.532;5.290;2022-10-16T11:50:23;5.68;;;1.98;;
24325;SDS011;12448;45.532;5.290;2022-10-16T11:55:44;5.45;;;2.22;;
24325;SDS011;12448;45.532;5.290;2022-10-16T12:06:34;12.10;;;2.60;;
24325;SDS011;12448;45.532;5.290;2022-10-16T12:09:40;7.32;;;1.95;;
24325;SDS011;12448;45.532;5.290;2022-10-16T12:12:01;4.97;;;2.30;;
24325;SDS011;12448;45.532;5.290;2022-10-16T12:16:57;3.47;;;2.00;;
24325;SDS011;12448;45.532;5.290;2022-10-16T12:20:30;6.60;;;2.13;;
24325;SDS011;12448;45.532;5.290;2022-10-16T12:22:55;4.15;;;2.03;;
24325;SDS011;12448;45.532;5.290;2022-10-16T12:25:35;3.75;;;2.05;;
24325;SDS011;12448;45.532;5.290;2022-10-16T12:30:52;4.47;;;2.08;;
24325;SDS011;12448;45.532;5.290;2022-10-16T12:35:53;4.55;;;2.08;;
24325;SDS011;12448;45.532;5.290;2022-10-16T12:38:53;5.45;;;2.20;;
24325;SDS011;12448;45.532;5.290;2022-10-16T12:41:23;5.40;;;2.03;;
24325;SDS011;12448;45.532;5.290;2022-10-16T12:43:53;5.30;;;2.40;;
24325;SDS011;12448;45.532;5.290;2022-10-16T12:48:44;5.30;;;2.25;;
24325;SDS011;12448;45.532;5.290;2022-10-16T12:53:58;6.32;;;2.50;;
24325;SDS011;12448;45.532;5.290;2022-10-16T12:56:35;3.10;;;2.10;;
24325;SDS011;12448;45.532;5.290;2022-10-16T12:59:39;4.60;;;2.42;;
24325;SDS011;12448;45.532;5.290;2022-10-16T13:08:07;4.20;;;2.45;;
24325;SDS011;12448;45.532;5.290;2022-10-16T13:19:45;3.22;;;2.08;;
24325;SDS011;12448;45.532;5.290;2022-10-16T13:27:56;12.70;;;3.00;;
24325;SDS011;12448;45.532;5.290;2022-10-16T13:30:36;6.00;;;2.47;;
24325;SDS011;12448;45.532;5.290;2022-10-16T13:36:00;6.97;;;2.25;;
24325;SDS011;12448;45.532;5.290;2022-10-16T13:38:27;5.22;;;2.33;;
24325;SDS011;12448;45.532;5.290;2022-10-16T13:41:03;4.20;;;2.40;;
24325;SDS011;12448;45.532;5.290;2022-10-16T13:46:23;4.53;;;2.35;;
24325;SDS011;12448;45.532;5.290;2022-10-16T13:49:00;5.10;;;2.35;;
24325;SDS011;12448;45.532;5.290;2022-10-16T13:51:26;6.40;;;2.47;;
24325;SDS011;12448;45.532;5.290;2022-10-16T13:53:53;6.13;;;2.47;;
24325;SDS011;12448;45.532;5.290;2022-10-16T13:56:22;3.22;;;2.15;;
24325;SDS011;12448;45.532;5.290;2022-10-16T13:59:00;5.20;;;2.20;;
24325;SDS011;12448;45.532;5.290;2022-10-16T14:01:30;6.57;;;2.22;;
24325;SDS011;12448;45.532;5.290;2022-10-16T14:04:10;7.45;;;2.22;;
24325;SDS011;12448;45.532;5.290;2022-10-16T14:06:45;3.47;;;2.33;;
24325;SDS011;12448;45.532;5.290;2022-10-16T14:09:18;5.78;;;2.45;;
24325;SDS011;12448;45.532;5.290;2022-10-16T14:11:52;6.20;;;2.45;;
24325;SDS011;12448;45.532;5.290;2022-10-16T14:14:20;4.32;;;2.33;;
24325;SDS011;12448;45.532;5.290;2022-10-16T14:16:47;6.50;;;2.38;;
24325;SDS011;12448;45.532;5.290;2022-10-16T14:19:15;7.05;;;2.85;;
24325;SDS011;12448;45.532;5.290;2022-10-16T14:21:47;5.70;;;2.53;;
24325;SDS011;12448;45.532;5.290;2022-10-16T14:24:14;6.43;;;2.15;;
24325;SDS011;12448;45.532;5.290;2022-10-16T14:26:58;3.38;;;2.50;;
24325;SDS011;12448;45.532;5.290;2022-10-16T14:29:25;7.47;;;2.72;;
24325;SDS011;12448;45.532;5.290;2022-10-16T14:31:59;7.18;;;2.67;;
24325;SDS011;12448;45.532;5.290;2022-10-16T14:36:58;6.28;;;3.00;;
24325;SDS011;12448;45.532;5.290;2022-10-16T14:39:51;8.45;;;2.70;;
24325;SDS011;12448;45.532;5.290;2022-10-16T14:42:18;4.25;;;3.03;;
24325;SDS011;12448;45.532;5.290;2022-10-16T14:44:46;5.20;;;3.13;;
24325;SDS011;12448;45.532;5.290;2022-10-16T14:47:19;4.70;;;2.90;;
24325;SDS011;12448;45.532;5.290;2022-10-16T14:49:50;6.63;;;2.70;;
24325;SDS011;12448;45.532;5.290;2022-10-16T14:52:16;6.63;;;3.20;;
24325;SDS011;12448;45.532;5.290;2022-10-16T14:54:42;5.65;;;2.88;;
24325;SDS011;12448;45.532;5.290;2022-10-16T15:00:06;7.03;;;3.00;;
24325;SDS011;12448;45.532;5.290;2022-10-16T15:02:41;5.10;;;2.90;;
24325;SDS011;12448;45.532;5.290;2022-10-16T15:05:11;7.32;;;2.47;;
24325;SDS011;12448;45.532;5.290;2022-10-16T15:07:43;11.07;;;4.35;;
24325;SDS011;12448;45.532;5.290;2022-10-16T15:10:08;5.03;;;2.55;;
24325;SDS011;12448;45.532;5.290;2022-10-16T15:12:34;4.78;;;2.53;;
24325;SDS011;12448;45.532;5.290;2022-10-16T15:15:00;4.80;;;2.55;;
24325;SDS011;12448;45.532;5.290;2022-10-16T15:17:26;7.07;;;2.60;;
24325;SDS011;12448;45.532;5.290;2022-10-16T15:19:51;4.70;;;2.67;;
24325;SDS011;12448;45.532;5.290;2022-10-16T15:22:17;4.55;;;2.58;;
24325;SDS011;12448;45.532;5.290;2022-10-16T15:24:43;9.82;;;3.00;;
24325;SDS011;12448;45.532;5.290;2022-10-16T15:27:08;6.93;;;2.95;;
24325;SDS011;12448;45.532;5.290;2022-10-16T15:29:34;6.32;;;2.80;;
24325;SDS011;12448;45.532;5.290;2022-10-16T15:32:00;6.68;;;2.72;;
24325;SDS011;12448;45.532;5.290;2022-10-16T15:34:26;6.75;;;2.65;;
24325;SDS011;12448;45.532;5.290;2022-10-16T15:36:51;5.00;;;2.60;;
24325;SDS011;12448;45.532;5.290;2022-10-16T15:39:18;5.70;;;2.55;;
24325;SDS011;12448;45.532;5.290;2022-10-16T15:41:45;5.40;;;2.25;;
24325;SDS011;12448;45.532;5.290;2022-10-16T15:44:19;5.18;;;2.33;;
24325;SDS011;12448;45.532;5.290;2022-10-16T15:46:48;4.70;;;2.50;;
24325;SDS011;12448;45.532;5.290;2022-10-16T15:49:20;6.80;;;2.28;;
24325;SDS011;12448;45.532;5.290;2022-10-16T15:51:45;4.38;;;2.28;;
24325;SDS011;12448;45.532;5.290;2022-10-16T15:54:11;2.65;;;2.05;;
24325;SDS011;12448;45.532;5.290;2022-10-16T15:56:36;4.28;;;2.17;;
24325;SDS011;12448;45.532;5.290;2022-10-16T15:59:02;5.32;;;2.35;;
24325;SDS011;12448;45.532;5.290;2022-10-16T16:01:28;5.78;;;2.30;;
24325;SDS011;12448;45.532;5.290;2022-10-16T16:03:57;6.18;;;2.78;;
24325;SDS011;12448;45.532;5.290;2022-10-16T16:06:23;6.78;;;2.63;;
24325;SDS011;12448;45.532;5.290;2022-10-16T16:08:49;5.38;;;2.65;;
24325;SDS011;12448;45.532;5.290;2022-10-16T16:11:16;6.30;;;2.50;;
24325;SDS011;12448;45.532;5.290;2022-10-16T16:13:42;6.75;;;2.50;;
24325;SDS011;12448;45.532;5.290;2022-10-16T16:16:09;5.45;;;2.60;;
24325;SDS011;12448;45.532;5.290;2022-10-16T16:18:43;5.28;;;2.40;;
24325;SDS011;12448;45.532;5.290;2022-10-16T16:21:10;3.53;;;2.55;;
24325;SDS011;12448;45.532;5.290;2022-10-16T16:23:36;5.50;;;2.70;;
24325;SDS011;12448;45.532;5.290;2022-10-16T16:28:40;5.88;;;2.70;;
24325;SDS011;12448;45.532;5.290;2022-10-16T16:31:06;9.30;;;3.85;;
24325;SDS011;12448;45.532;5.290;2022-10-16T16:33:32;10.20;;;2.63;;
24325;SDS011;12448;45.532;5.290;2022-10-16T16:35:58;6.07;;;2.78;;
24325;SDS011;12448;45.532;5.290;2022-10-16T16:38:25;7.68;;;2.80;;
24325;SDS011;12448;45.532;5.290;2022-10-16T16:40:51;4.80;;;3.05;;
24325;SDS011;12448;45.532;5.290;2022-10-16T16:43:17;4.15;;;2.85;;
24325;SDS011;12448;45.532;5.290;2022-10-16T16:45:43;6.63;;;3.22;;
24325;SDS011;12448;45.532;5.290;2022-10-16T16:48:09;3.08;;;2.50;;
24325;SDS011;12448;45.532;5.290;2022-10-16T16:50:35;7.50;;;3.00;;
24325;SDS011;12448;45.532;5.290;2022-10-16T16:53:02;8.50;;;3.20;;
24325;SDS011;12448;45.532;5.290;2022-10-16T16:55:28;9.32;;;3.30;;
24325;SDS011;12448;45.532;5.290;2022-10-16T16:57:54;4.47;;;2.95;;
24325;SDS011;12448;45.532;5.290;2022-10-16T17:00:21;6.22;;;2.85;;
24325;SDS011;12448;45.532;5.290;2022-10-16T17:02:50;6.93;;;3.15;;
24325;SDS011;12448;45.532;5.290;2022-10-16T17:05:16;5.82;;;3.40;;
24325;SDS011;12448;45.532;5.290;2022-10-16T17:07:43;6.82;;;3.20;;
24325;SDS011;12448;45.532;5.290;2022-10-16T17:10:08;7.70;;;3.15;;
24325;SDS011;12448;45.532;5.290;2022-10-16T17:12:34;12.10;;;3.45;;
24325;SDS011;12448;45.532;5.290;2022-10-16T17:15:00;4.47;;;3.08;;
24325;SDS011;12448;45.532;5.290;2022-10-16T17:17:26;6.47;;;3.17;;
24325;SDS011;12448;45.532;5.290;2022-10-16T17:19:52;7.03;;;3.10;;
24325;SDS011;12448;45.532;5.290;2022-10-16T17:22:18;6.38;;;3.35;;
24325;SDS011;12448;45.532;5.290;2022-10-16T17:24:45;6.55;;;3.60;;
24325;SDS011;12448;45.532;5.290;2022-10-16T17:27:14;5.13;;;3.30;;
24325;SDS011;12448;45.532;5.290;2022-10-16T17:29:40;8.20;;;3.90;;
24325;SDS011;12448;45.532;5.290;2022-10-16T17:32:06;7.75;;;3.60;;
24325;SDS011;12448;45.532;5.290;2022-10-16T17:34:32;9.85;;;3.95;;
24325;SDS011;12448;45.532;5.290;2022-10-16T17:36:59;7.25;;;3.90;;
24325;SDS011;12448;45.532;5.290;2022-10-16T17:39:25;7.35;;;4.18;;
24325;SDS011;12448;45.532;5.290;2022-10-16T17:41:50;7.68;;;3.72;;
24325;SDS011;12448;45.532;5.290;2022-10-16T17:44:16;6.57;;;3.95;;
24325;SDS011;12448;45.532;5.290;2022-10-16T17:46:48;6.45;;;3.92;;
24325;SDS011;12448;45.532;5.290;2022-10-16T17:49:15;8.13;;;4.32;;
24325;SDS011;12448;45.532;5.290;2022-10-16T17:51:41;7.70;;;4.65;;
24325;SDS011;12448;45.532;5.290;2022-10-16T17:54:07;7.50;;;4.40;;
24325;SDS011;12448;45.532;5.290;2022-10-16T17:56:33;9.93;;;4.55;;
24325;SDS011;12448;45.532;5.290;2022-10-16T17:59:00;6.53;;;4.03;;
24325;SDS011;12448;45.532;5.290;2022-10-16T18:01:28;8.43;;;4.53;;
24325;SDS011;12448;45.532;5.290;2022-10-16T18:04:03;8.30;;;4.50;;
24325;SDS011;12448;45.532;5.290;2022-10-16T18:06:31;8.65;;;4.30;;
24325;SDS011;12448;45.532;5.290;2022-10-16T18:08:58;9.27;;;4.25;;
24325;SDS011;12448;45.532;5.290;2022-10-16T18:11:24;8.77;;;4.93;;
24325;SDS011;12448;45.532;5.290;2022-10-16T18:13:51;8.13;;;4.30;;
24325;SDS011;12448;45.532;5.290;2022-10-16T18:16:18;10.77;;;4.65;;
24325;SDS011;12448;45.532;5.290;2022-10-16T18:18:43;7.78;;;4.20;;
24325;SDS011;12448;45.532;5.290;2022-10-16T18:21:10;12.60;;;4.70;;
24325;SDS011;12448;45.532;5.290;2022-10-16T18:23:37;6.32;;;4.50;;